Time;durP1;ratioP1;P1;durP2;ratioP2;P2;SDS_P1;SDS_P2;PMS_P1;PMS_P2;Temp;Humidity;BMP_temperature;BMP_pressure;BME280_temperature;BME280_humidity;BME280_pressure;Samples;Min_cycle;Max_cycle;Signal;HPM_P1;HPM_P2
2023/01/06 00:02:03;;;;;;;11.67;5.13;;;;;;;;;;5023805;28;20232;-24
2023/01/06 00:05:08;;;;;;;8.17;5.57;;;;;;;;;;5034102;28;20222;-26
2023/01/06 00:11:09;;;;;;;7.47;5.07;;;;;;;;;;5014860;28;20265;-26
2023/01/06 00:14:09;;;;;;;9.73;5.63;;;;;;;;;;5017057;28;20223;-26
2023/01/06 00:17:03;;;;;;;11.27;6.17;;;;;;;;;;5016120;28;20218;-36
2023/01/06 00:20:06;;;;;;;9.50;6.07;;;;;;;;;;5026445;28;20233;-27
2023/01/06 00:22:54;;;;;;;9.80;6.20;;;;;;;;;;5029607;28;20254;-27
2023/01/06 00:26:11;;;;;;;9.87;6.23;;;;;;;;;;5034696;28;20233;-28
2023/01/06 00:43:44;;;;;;;9.13;6.23;;;;;;;;;;5024636;28;20211;-30
2023/01/06 00:49:21;;;;;;;12.10;6.40;;;;;;;;;;4964670;27;5401725;-34
2023/01/06 00:52:04;;;;;;;9.43;6.20;;;;;;;;;;5111081;28;20224;-39
2023/01/06 00:54:36;;;;;;;9.73;6.20;;;;;;;;;;5098948;28;20207;-33
2023/01/06 01:06:39;;;;;;;8.43;6.33;;;;;;;;;;5070472;28;20222;-36
2023/01/06 01:09:24;;;;;;;8.87;6.13;;;;;;;;;;5068669;28;20225;-35
2023/01/06 01:12:15;;;;;;;9.30;6.00;;;;;;;;;;5063086;28;20233;-30
2023/01/06 01:15:11;;;;;;;9.50;5.50;;;;;;;;;;5058082;28;20236;-36
2023/01/06 01:18:12;;;;;;;7.10;5.93;;;;;;;;;;5069140;28;20286;-35
2023/01/06 01:20:56;;;;;;;10.17;5.90;;;;;;;;;;5070567;28;20205;-34
2023/01/06 01:23:38;;;;;;;6.57;5.00;;;;;;;;;;5059257;28;20575;-34
2023/01/06 01:29:32;;;;;;;6.33;5.63;;;;;;;;;;5051758;28;20234;-33
2023/01/06 01:32:22;;;;;;;6.40;4.77;;;;;;;;;;5050383;28;20233;-33
2023/01/06 01:38:12;;;;;;;10.87;5.33;;;;;;;;;;5051892;28;20286;-31
2023/01/06 01:44:21;;;;;;;5.40;4.70;;;;;;;;;;5049819;28;20210;-28
2023/01/06 02:54:45;;;;;;;8.83;5.40;;;;;;;;;;5034791;28;20230;-25
2023/01/06 02:57:45;;;;;;;8.60;4.83;;;;;;;;;;5034596;28;20206;-27
2023/01/06 03:03:22;;;;;;;6.47;4.87;;;;;;;;;;5065262;23;20242;-24
2023/01/06 03:06:16;;;;;;;6.20;5.07;;;;;;;;;;5035725;28;20210;-26
2023/01/06 03:09:13;;;;;;;6.07;4.57;;;;;;;;;;5031961;28;20226;-26
2023/01/06 03:12:03;;;;;;;6.27;5.00;;;;;;;;;;5035028;28;20291;-27
2023/01/06 03:18:02;;;;;;;6.90;4.73;;;;;;;;;;5034091;28;20202;-28
2023/01/06 03:23:52;;;;;;;7.00;4.93;;;;;;;;;;5032663;28;20234;-29
2023/01/06 03:30:05;;;;;;;10.67;5.80;;;;;;;;;;5027599;28;20245;-31
2023/01/06 03:36:23;;;;;;;8.13;4.83;;;;;;;;;;5035380;28;20286;-32
2023/01/06 03:51:26;;;;;;;8.43;5.30;;;;;;;;;;5072533;22;20308;-30
2023/01/06 03:57:37;;;;;;;12.67;6.70;;;;;;;;;;5047300;28;20273;-28
2023/01/06 04:03:18;;;;;;;10.83;5.47;;;;;;;;;;5067440;22;20272;-27
2023/01/06 04:06:19;;;;;;;7.27;5.90;;;;;;;;;;5053038;28;20217;-26
2023/01/06 05:18:07;;;;;;;6.63;3.47;;;;;;;;;;5032736;28;20230;-26
2023/01/06 05:21:18;;;;;;;3.67;3.37;;;;;;;;;;5027212;28;20235;-23
2023/01/06 05:27:14;;;;;;;5.37;3.43;;;;;;;;;;5034118;28;20209;-27
2023/01/06 05:30:11;;;;;;;4.40;3.50;;;;;;;;;;5023406;28;20234;-29
2023/01/06 05:33:07;;;;;;;3.30;3.00;;;;;;;;;;5032783;28;20223;-28
2023/01/06 05:39:27;;;;;;;3.10;2.70;;;;;;;;;;5025677;28;20241;-28
2023/01/06 05:42:40;;;;;;;4.43;2.93;;;;;;;;;;5030590;28;20237;-28
2023/01/06 05:45:52;;;;;;;2.63;2.47;;;;;;;;;;5032861;28;20217;-26
2023/01/06 05:48:54;;;;;;;3.00;2.80;;;;;;;;;;5033459;28;20298;-27
2023/01/06 05:54:37;;;;;;;2.77;2.57;;;;;;;;;;5464586;22;20381;-25
2023/01/06 06:03:33;;;;;;;3.10;2.90;;;;;;;;;;5013517;28;20268;-27
2023/01/06 06:06:31;;;;;;;2.80;2.60;;;;;;;;;;5016965;28;20226;-25
2023/01/06 07:01:18;;;;;;;6.47;2.33;;;;;;;;;;5058354;28;20225;-33
2023/01/06 07:04:30;;;;;;;2.87;2.10;;;;;;;;;;5030485;28;20218;-31
2023/01/06 07:25:51;;;;;;;2.03;1.93;;;;;;;;;;5094852;28;20228;-26
2023/01/06 07:31:46;;;;;;;2.10;2.00;;;;;;;;;;5114905;22;20262;-25
2023/01/06 07:49:08;;;;;;;2.50;2.30;;;;;;;;;;5130495;27;20321;-27
2023/01/06 07:57:57;;;;;;;2.37;2.10;;;;;;;;;;5099819;28;20204;-27
2023/01/06 08:10:07;;;;;;;2.30;2.10;;;;;;;;;;5108461;28;20220;-32
2023/01/06 08:13:06;;;;;;;2.40;2.20;;;;;;;;;;5094717;28;20231;-37
2023/01/06 08:22:19;;;;;;;2.20;2.10;;;;;;;;;;5081511;28;20224;-28
2023/01/06 08:25:22;;;;;;;2.00;1.90;;;;;;;;;;5087158;28;20197;-30
2023/01/06 08:28:06;;;;;;;2.23;2.03;;;;;;;;;;5095576;28;20196;-31
2023/01/06 08:39:23;;;;;;;2.00;1.70;;;;;;;;;;5129330;27;20203;-26
2023/01/06 08:42:33;;;;;;;1.97;1.87;;;;;;;;;;5126854;27;20219;-24
2023/01/06 08:51:26;;;;;;;2.27;2.00;;;;;;;;;;5088882;28;20208;-27
2023/01/06 08:54:09;;;;;;;2.03;1.93;;;;;;;;;;5103888;27;20200;-23
2023/01/06 09:05:57;;;;;;;3.93;2.43;;;;;;;;;;5115807;28;20214;-27
2023/01/06 09:12:15;;;;;;;5.13;2.60;;;;;;;;;;5075365;28;20237;-26
2023/01/06 09:15:19;;;;;;;2.60;2.40;;;;;;;;;;5070653;28;20262;-27
2023/01/06 09:24:20;;;;;;;2.87;2.57;;;;;;;;;;5057251;28;20320;-26
2023/01/06 09:27:23;;;;;;;4.73;2.70;;;;;;;;;;5066637;28;20205;-22
2023/01/06 09:33:31;;;;;;;4.43;3.07;;;;;;;;;;5065906;28;20224;-25
2023/01/06 09:36:06;;;;;;;2.67;2.47;;;;;;;;;;5074524;28;20211;-24
2023/01/06 09:49:00;;;;;;;5.43;3.90;;;;;;;;;;5052474;28;20209;-24
2023/01/06 09:54:35;;;;;;;3.97;3.00;;;;;;;;;;5002685;28;20255;-21
2023/01/06 10:10:38;;;;;;;4.00;3.70;;;;;;;;;;5010575;28;20207;-28
2023/01/06 10:13:17;;;;;;;3.50;3.17;;;;;;;;;;4986744;28;20617;-25
2023/01/06 10:21:37;;;;;;;3.03;2.20;;;;;;;;;;4987017;28;20260;-26
2023/01/06 10:24:29;;;;;;;2.57;2.37;;;;;;;;;;4989080;28;20219;-24
2023/01/06 10:27:24;;;;;;;2.67;2.03;;;;;;;;;;4967940;28;20212;-29
2023/01/06 10:30:05;;;;;;;2.17;1.50;;;;;;;;;;4988999;28;20278;-28
2023/01/06 10:32:53;;;;;;;2.87;1.80;;;;;;;;;;4986083;28;20315;-28
2023/01/06 10:35:33;;;;;;;2.20;2.00;;;;;;;;;;4983209;28;20215;-25
2023/01/06 10:46:27;;;;;;;1.80;1.70;;;;;;;;;;5001825;28;20276;-26
2023/01/06 10:52:07;;;;;;;1.73;1.63;;;;;;;;;;4998219;28;20278;-26
2023/01/06 10:55:19;;;;;;;1.70;1.60;;;;;;;;;;4997285;28;20247;-25
2023/01/06 10:58:14;;;;;;;1.87;1.60;;;;;;;;;;4997320;28;20294;-25
2023/01/06 11:01:10;;;;;;;2.27;1.20;;;;;;;;;;4995680;28;20232;-26
2023/01/06 11:04:10;;;;;;;2.67;2.30;;;;;;;;;;4996637;28;20200;-28
2023/01/06 11:06:50;;;;;;;2.00;1.30;;;;;;;;;;4996378;28;20204;-28
2023/01/06 11:09:40;;;;;;;1.30;1.20;;;;;;;;;;4993199;28;20262;-25
2023/01/06 11:12:28;;;;;;;3.23;1.70;;;;;;;;;;4991411;28;20290;-27
2023/01/06 11:15:12;;;;;;;1.00;1.00;;;;;;;;;;4998135;28;20227;-28
2023/01/06 11:18:10;;;;;;;1.70;1.10;;;;;;;;;;4996965;28;20200;-24
2023/01/06 11:21:05;;;;;;;1.30;1.20;;;;;;;;;;4991934;28;20219;-25
2023/01/06 11:26:51;;;;;;;1.30;0.97;;;;;;;;;;4995609;28;20620;-28
2023/01/06 11:29:45;;;;;;;1.10;1.10;;;;;;;;;;4995583;28;20220;-24
2023/01/06 11:32:30;;;;;;;1.00;1.00;;;;;;;;;;5026976;23;20235;-26
2023/01/06 11:35:17;;;;;;;1.77;1.10;;;;;;;;;;5015085;28;20294;-27
2023/01/06 11:41:20;;;;;;;0.90;0.90;;;;;;;;;;5004035;23;20234;-28
2023/01/06 11:43:59;;;;;;;3.43;1.20;;;;;;;;;;4991786;28;20324;-25
2023/01/06 11:46:33;;;;;;;1.43;1.10;;;;;;;;;;4995096;28;20216;-25
2023/01/06 11:49:13;;;;;;;1.50;1.00;;;;;;;;;;4992292;28;20208;-25
2023/01/06 11:52:05;;;;;;;1.27;1.17;;;;;;;;;;5014025;23;20231;-25
2023/01/06 11:54:44;;;;;;;1.00;1.00;;;;;;;;;;5014032;28;20217;-25
2023/01/06 12:02:33;;;;;;;1.00;1.00;;;;;;;;;;4993234;28;20238;-26
2023/01/06 12:11:17;;;;;;;1.17;1.10;;;;;;;;;;4988835;28;20306;-27
2023/01/06 12:14:12;;;;;;;1.00;0.90;;;;;;;;;;4989124;28;20243;-25
2023/01/06 12:17:00;;;;;;;0.90;0.90;;;;;;;;;;4987574;28;20203;-28
2023/01/06 12:19:38;;;;;;;0.80;0.80;;;;;;;;;;4991223;28;20227;-27
2023/01/06 12:22:25;;;;;;;0.60;0.60;;;;;;;;;;4990858;28;20233;-27
2023/01/06 12:25:23;;;;;;;0.83;0.83;;;;;;;;;;4988905;28;20207;-26
2023/01/06 12:27:59;;;;;;;1.03;0.93;;;;;;;;;;4985341;28;20204;-27
2023/01/06 12:30:38;;;;;;;0.50;0.50;;;;;;;;;;4994113;28;20211;-27
2023/01/06 12:33:18;;;;;;;0.67;0.67;;;;;;;;;;4994223;28;20274;-29
2023/01/06 12:36:01;;;;;;;0.50;0.50;;;;;;;;;;4994328;28;20348;-26
2023/01/06 12:38:48;;;;;;;0.60;0.60;;;;;;;;;;4991436;28;20204;-24
2023/01/06 12:41:31;;;;;;;0.70;0.67;;;;;;;;;;4994070;28;20250;-28
2023/01/06 12:44:13;;;;;;;1.03;0.50;;;;;;;;;;4988040;28;20208;-27
2023/01/06 12:47:10;;;;;;;0.50;0.50;;;;;;;;;;4993297;28;20285;-28
2023/01/06 12:49:47;;;;;;;0.47;0.47;;;;;;;;;;4993611;28;20212;-26
2023/01/06 12:52:35;;;;;;;0.73;0.50;;;;;;;;;;4989870;28;20228;-26
2023/01/06 12:55:11;;;;;;;0.83;0.47;;;;;;;;;;4989082;28;20216;-24
2023/01/06 12:57:59;;;;;;;0.80;0.80;;;;;;;;;;4993183;28;20223;-25
2023/01/06 13:00:52;;;;;;;0.83;0.50;;;;;;;;;;4992040;28;20196;-27
2023/01/06 13:03:49;;;;;;;0.70;0.70;;;;;;;;;;4991120;28;20204;-25
2023/01/06 13:06:30;;;;;;;0.60;0.60;;;;;;;;;;4978159;28;20231;-27
2023/01/06 13:09:10;;;;;;;1.27;0.90;;;;;;;;;;4986667;28;20246;-28
2023/01/06 13:11:57;;;;;;;0.43;0.43;;;;;;;;;;4994349;28;20219;-28
2023/01/06 13:14:33;;;;;;;0.93;0.77;;;;;;;;;;4979438;28;20326;-28
2023/01/06 13:17:21;;;;;;;1.17;0.40;;;;;;;;;;4994810;28;20212;-27
2023/01/06 13:20:11;;;;;;;0.60;0.60;;;;;;;;;;4993899;28;20216;-26
2023/01/06 13:26:14;;;;;;;0.70;0.70;;;;;;;;;;4990928;28;20215;-27
2023/01/06 13:29:01;;;;;;;0.50;0.50;;;;;;;;;;4958274;28;20216;-24
2023/01/06 13:31:50;;;;;;;0.40;0.40;;;;;;;;;;4984113;28;20223;-26
2023/01/06 13:34:39;;;;;;;0.40;0.40;;;;;;;;;;4991544;28;20218;-27
2023/01/06 13:37:24;;;;;;;1.07;0.50;;;;;;;;;;4986025;28;20204;-27
2023/01/06 13:40:09;;;;;;;0.50;0.50;;;;;;;;;;4988913;28;20208;-24
2023/01/06 13:42:56;;;;;;;0.50;0.50;;;;;;;;;;4990477;28;20259;-26
2023/01/06 13:45:36;;;;;;;0.30;0.30;;;;;;;;;;4989630;28;20266;-24
2023/01/06 13:48:33;;;;;;;10.67;6.60;;;;;;;;;;4992813;28;20224;-27
2023/01/06 13:51:16;;;;;;;12.13;8.13;;;;;;;;;;4992355;28;20525;-22
2023/01/06 13:53:56;;;;;;;6.10;5.27;;;;;;;;;;5070487;23;20250;-24
2023/01/06 13:56:56;;;;;;;1.10;1.10;;;;;;;;;;4992655;28;20204;-26
2023/01/06 14:03:00;;;;;;;0.40;0.40;;;;;;;;;;4991679;28;20602;-23
2023/01/06 14:08:58;;;;;;;0.57;0.40;;;;;;;;;;4989238;28;20207;-28
2023/01/06 14:11:36;;;;;;;0.60;0.60;;;;;;;;;;4989773;28;20307;-27
2023/01/06 14:14:09;;;;;;;1.10;1.10;;;;;;;;;;4991338;28;20203;-26
2023/01/06 14:16:53;;;;;;;0.50;0.50;;;;;;;;;;4992104;28;20286;-28
2023/01/06 14:19:27;;;;;;;0.40;0.40;;;;;;;;;;4991150;28;20279;-27
2023/01/06 14:22:17;;;;;;;0.40;0.40;;;;;;;;;;4991369;28;20235;-28
2023/01/06 14:35:17;;;;;;;0.70;0.70;;;;;;;;;;4994423;28;20223;-28
2023/01/06 14:38:10;;;;;;;0.70;0.67;;;;;;;;;;4984203;28;20294;-25
2023/01/06 14:40:52;;;;;;;1.17;0.80;;;;;;;;;;4995677;28;20215;-26
2023/01/06 14:43:32;;;;;;;0.43;0.40;;;;;;;;;;4991323;28;20203;-29
2023/01/06 14:46:06;;;;;;;0.57;0.57;;;;;;;;;;4975348;28;20226;-26
2023/01/06 14:48:47;;;;;;;0.50;0.50;;;;;;;;;;4996097;28;20208;-23
2023/01/06 14:51:30;;;;;;;0.60;0.60;;;;;;;;;;4992178;28;20343;-25
2023/01/06 14:54:17;;;;;;;0.60;0.50;;;;;;;;;;4993377;28;20235;-26
2023/01/06 14:57:05;;;;;;;0.87;0.80;;;;;;;;;;4996185;28;20200;-27
2023/01/06 14:59:47;;;;;;;0.60;0.60;;;;;;;;;;4990742;28;20211;-27
2023/01/06 15:16:04;;;;;;;0.50;0.50;;;;;;;;;;4994684;28;20224;-25
2023/01/06 15:18:48;;;;;;;0.50;0.50;;;;;;;;;;4996648;28;20218;-25
2023/01/06 15:21:33;;;;;;;0.63;0.50;;;;;;;;;;4996956;28;20290;-29
2023/01/06 16:02:30;;;;;;;;;;;;;;;;;;;;;
2023/01/06 16:17:38;;;;;;;3.07;1.63;;;;;;;;;;4893902;29;20219;-27
2023/01/06 16:20:54;;;;;;;2.20;1.57;;;;;;;;;;4893981;29;20223;-25
2023/01/06 16:23:51;;;;;;;2.50;1.30;;;;;;;;;;4913339;29;20240;-28
2023/01/06 16:33:32;;;;;;;1.70;1.60;;;;;;;;;;4993589;28;20264;-24
2023/01/06 16:45:43;;;;;;;1.80;1.70;;;;;;;;;;4988552;28;20301;-25
2023/01/06 16:57:44;;;;;;;1.70;1.60;;;;;;;;;;4991301;28;20212;-24
2023/01/06 17:06:11;;;;;;;2.30;2.00;;;;;;;;;;4993683;28;20218;-28
2023/01/06 17:08:59;;;;;;;2.00;1.80;;;;;;;;;;4993769;28;20279;-26
2023/01/06 17:15:37;;;;;;;1.47;1.33;;;;;;;;;;4654858;27;13975995;-33
2023/01/06 17:24:24;;;;;;;1.60;1.50;;;;;;;;;;5122667;28;20204;-33
2023/01/06 17:27:15;;;;;;;2.70;2.07;;;;;;;;;;5120805;28;20217;-33
2023/01/06 17:30:03;;;;;;;12.03;5.73;;;;;;;;;;5126780;28;20211;-38
2023/01/06 17:35:58;;;;;;;4.90;3.27;;;;;;;;;;5110724;28;20227;-36
2023/01/06 17:39:21;;;;;;;2.80;2.43;;;;;;;;;;5112300;28;20207;-35
2023/01/06 17:42:05;;;;;;;4.57;3.30;;;;;;;;;;5120879;28;20285;-36
2023/01/06 17:44:47;;;;;;;4.47;3.00;;;;;;;;;;5104990;28;20200;-37
2023/01/06 17:47:50;;;;;;;2.53;2.10;;;;;;;;;;5113111;28;20606;-35
2023/01/06 17:56:33;;;;;;;5.27;3.17;;;;;;;;;;5111088;28;20215;-29
2023/01/06 17:59:11;;;;;;;3.17;2.87;;;;;;;;;;5116401;28;20200;-35
2023/01/06 18:02:06;;;;;;;4.07;2.70;;;;;;;;;;5112188;28;20227;-35
2023/01/06 18:04:43;;;;;;;4.50;3.10;;;;;;;;;;5124677;28;20212;-33
2023/01/06 18:07:27;;;;;;;2.80;2.50;;;;;;;;;;5113864;28;20253;-34
2023/01/06 18:10:26;;;;;;;2.80;2.30;;;;;;;;;;5123160;28;20203;-35
2023/01/06 18:16:30;;;;;;;1.60;1.50;;;;;;;;;;5089559;28;20239;-34
2023/01/06 18:22:54;;;;;;;2.10;1.70;;;;;;;;;;5115266;28;20214;-31
2023/01/06 19:27:07;;;;;;;2.40;2.13;;;;;;;;;;4942854;29;20395;-26
2023/01/06 19:32:53;;;;;;;13.57;8.43;;;;;;;;;;5031151;28;20235;-27
2023/01/06 19:41:45;;;;;;;4.83;3.30;;;;;;;;;;5026769;28;20290;-25
2023/01/06 19:44:22;;;;;;;5.53;4.53;;;;;;;;;;5026163;28;20305;-26
2023/01/06 19:46:59;;;;;;;16.70;9.43;;;;;;;;;;5027968;28;20214;-28
2023/01/06 19:49:45;;;;;;;21.77;9.57;;;;;;;;;;5019821;28;20214;-27
2023/01/06 19:52:38;;;;;;;9.27;5.47;;;;;;;;;;5031003;28;20227;-27
2023/01/06 19:55:30;;;;;;;13.93;7.03;;;;;;;;;;5032093;28;20240;-29
2023/01/06 19:58:25;;;;;;;;;;;;;;;;;;;;;
2023/01/06 20:01:26;;;;;;;7.60;4.77;;;;;;;;;;5027867;28;20230;-24
2023/01/06 20:04:07;;;;;;;6.67;5.13;;;;;;;;;;5030178;28;20218;-28
2023/01/06 20:07:08;;;;;;;7.83;5.73;;;;;;;;;;5030731;28;20210;-27
2023/01/06 20:09:55;;;;;;;9.30;6.57;;;;;;;;;;5023278;28;20241;-26
2023/01/06 20:12:35;;;;;;;6.00;5.10;;;;;;;;;;5033083;28;20571;-30
2023/01/06 20:15:20;;;;;;;7.97;5.80;;;;;;;;;;5031960;28;20226;-25
2023/01/06 20:17:58;;;;;;;7.87;5.80;;;;;;;;;;5022267;28;20270;-28
2023/01/06 20:20:45;;;;;;;5.97;4.30;;;;;;;;;;5033920;28;20218;-26
2023/01/06 20:23:24;;;;;;;7.13;4.97;;;;;;;;;;5030808;28;20214;-28
2023/01/06 20:25:58;;;;;;;7.60;5.47;;;;;;;;;;5021869;28;20250;-29
2023/01/06 20:28:37;;;;;;;9.20;5.87;;;;;;;;;;5021531;28;20203;-24
2023/01/06 20:31:13;;;;;;;7.93;4.93;;;;;;;;;;5033941;28;20236;-27
2023/01/06 20:33:52;;;;;;;7.70;5.23;;;;;;;;;;5025412;28;20260;-25
2023/01/06 20:36:31;;;;;;;8.57;4.80;;;;;;;;;;5033556;28;20238;-26
2023/01/06 20:39:06;;;;;;;6.47;4.43;;;;;;;;;;5021799;28;20208;-26
2023/01/06 20:41:45;;;;;;;5.27;3.87;;;;;;;;;;5031208;28;20305;-28
2023/01/06 20:44:26;;;;;;;5.50;4.50;;;;;;;;;;5025474;28;20271;-23
2023/01/06 20:47:07;;;;;;;4.70;3.70;;;;;;;;;;5025699;28;20238;-25
2023/01/06 20:49:52;;;;;;;4.87;3.80;;;;;;;;;;5026217;28;20210;-27
2023/01/06 20:52:33;;;;;;;6.47;4.93;;;;;;;;;;5030974;28;20238;-25
2023/01/06 20:55:14;;;;;;;6.93;4.13;;;;;;;;;;5025421;28;20218;-27
2023/01/06 20:57:53;;;;;;;7.97;6.20;;;;;;;;;;5015280;28;21245;-26
2023/01/06 21:00:45;;;;;;;10.20;6.73;;;;;;;;;;5028014;28;20202;-26
2023/01/06 21:06:07;;;;;;;6.87;5.13;;;;;;;;;;5013331;28;20237;-27
2023/01/06 21:08:44;;;;;;;8.07;5.53;;;;;;;;;;5022781;28;20276;-27
2023/01/06 21:11:22;;;;;;;8.00;5.73;;;;;;;;;;5019982;28;20284;-26
2023/01/06 21:14:11;;;;;;;7.63;5.10;;;;;;;;;;5025582;28;20268;-27
2023/01/06 21:16:48;;;;;;;5.37;4.50;;;;;;;;;;5032937;28;20203;-29
2023/01/06 21:30:27;;;;;;;13.10;7.50;;;;;;;;;;5067860;28;20207;-35
2023/01/06 21:38:53;;;;;;;10.50;7.30;;;;;;;;;;5049235;28;20209;-29
2023/01/06 21:44:45;;;;;;;7.47;6.40;;;;;;;;;;5043854;28;20228;-29
2023/01/06 21:47:30;;;;;;;9.53;6.30;;;;;;;;;;5047872;28;20255;-26
2023/01/06 21:50:14;;;;;;;9.73;6.97;;;;;;;;;;5048995;28;20271;-28
2023/01/06 21:53:03;;;;;;;;;;;;;;;;;;;;;
2023/01/06 21:55:37;;;;;;;6.67;5.60;;;;;;;;;;5050883;28;20226;-26
2023/01/06 22:04:12;;;;;;;7.50;6.13;;;;;;;;;;5057115;28;20213;-28
2023/01/06 22:10:05;;;;;;;4.77;3.63;;;;;;;;;;5054188;28;20291;-26
2023/01/06 22:16:04;;;;;;;5.63;3.90;;;;;;;;;;5054068;28;20312;-24
2023/01/06 22:21:44;;;;;;;4.90;3.13;;;;;;;;;;5052466;28;20233;-29
2023/01/06 22:24:28;;;;;;;3.77;3.37;;;;;;;;;;5058300;28;20384;-25
2023/01/06 22:27:11;;;;;;;9.67;5.83;;;;;;;;;;5050929;28;20206;-27
2023/01/06 22:30:08;;;;;;;8.47;5.77;;;;;;;;;;5055996;28;20210;-26
2023/01/06 22:32:51;;;;;;;11.33;5.60;;;;;;;;;;5055655;28;20234;-25
2023/01/06 22:35:28;;;;;;;7.07;5.00;;;;;;;;;;5055716;28;20230;-31
2023/01/06 22:38:04;;;;;;;5.70;4.67;;;;;;;;;;5047525;28;20209;-27
2023/01/06 22:40:46;;;;;;;8.03;5.47;;;;;;;;;;5053197;28;20209;-32
2023/01/06 22:43:24;;;;;;;5.97;4.57;;;;;;;;;;5047386;28;20210;-26
2023/01/06 22:46:10;;;;;;;5.23;4.20;;;;;;;;;;5051363;28;20248;-25
2023/01/06 22:48:50;;;;;;;5.43;4.50;;;;;;;;;;5054784;28;20213;-25
2023/01/06 22:51:32;;;;;;;5.57;4.20;;;;;;;;;;5049967;28;20227;-25
2023/01/06 22:54:11;;;;;;;5.17;4.37;;;;;;;;;;5048258;28;20202;-25
2023/01/06 22:56:58;;;;;;;4.37;3.63;;;;;;;;;;5054986;28;20199;-28
2023/01/06 22:59:50;;;;;;;6.47;4.50;;;;;;;;;;5047159;28;20206;-28
2023/01/06 23:02:22;;;;;;;4.90;4.30;;;;;;;;;;5057791;28;20232;-26
2023/01/06 23:05:06;;;;;;;7.13;3.93;;;;;;;;;;5057268;28;20213;-28
2023/01/06 23:07:52;;;;;;;5.53;4.07;;;;;;;;;;5055538;28;20260;-26
2023/01/06 23:10:46;;;;;;;4.23;3.67;;;;;;;;;;5055522;28;20233;-28
2023/01/06 23:13:27;;;;;;;4.87;4.37;;;;;;;;;;5044209;28;20206;-29
2023/01/06 23:21:30;;;;;;;6.57;4.57;;;;;;;;;;5054335;28;20322;-34
2023/01/06 23:24:50;;;;;;;5.53;4.10;;;;;;;;;;5046649;28;20198;-31
2023/01/06 23:27:44;;;;;;;4.40;4.00;;;;;;;;;;5050798;28;20198;-36
2023/01/06 23:30:35;;;;;;;6.47;3.97;;;;;;;;;;5054090;28;20267;-31
2023/01/06 23:33:16;;;;;;;6.07;4.37;;;;;;;;;;5050441;28;20256;-32
2023/01/06 23:36:30;;;;;;;5.57;4.37;;;;;;;;;;5056240;28;20226;-28
2023/01/06 23:39:30;;;;;;;6.07;4.47;;;;;;;;;;5043067;28;20211;-32
2023/01/06 23:45:15;;;;;;;5.30;4.10;;;;;;;;;;5042742;28;20228;-34
2023/01/06 23:48:00;;;;;;;6.33;4.07;;;;;;;;;;5054086;28;20289;-32
2023/01/06 23:50:36;;;;;;;5.07;4.27;;;;;;;;;;5053655;28;20209;-29
2023/01/06 23:53:22;;;;;;;5.63;4.20;;;;;;;;;;5055730;28;20206;-32
2023/01/06 23:56:06;;;;;;;4.00;3.53;;;;;;;;;;5048555;28;20226;-33
2023/01/06 23:59:00;;;;;;;4.47;4.07;;;;;;;;;;5050086;28;20198;-32
